sensor_id;sensor_type;location;lat;lon;timestamp;temperature;humidity
11385;DHT22;5747;56.748;13.882;2023-03-31T00:01:21;2.00;99.90
11385;DHT22;5747;56.748;13.882;2023-03-31T00:03:50;1.90;99.90
11385;DHT22;5747;56.748;13.882;2023-03-31T00:06:18;1.90;99.90
11385;DHT22;5747;56.748;13.882;2023-03-31T00:08:46;2.00;99.90
11385;DHT22;5747;56.748;13.882;2023-03-31T00:11:19;2.00;99.90
11385;DHT22;5747;56.748;13.882;2023-03-31T00:13:47;2.00;99.90
11385;DHT22;5747;56.748;13.882;2023-03-31T00:16:16;2.10;99.90
11385;DHT22;5747;56.748;13.882;2023-03-31T00:18:45;2.10;99.90
11385;DHT22;5747;56.748;13.882;2023-03-31T00:21:18;2.10;99.90
11385;DHT22;5747;56.748;13.882;2023-03-31T00:24:01;2.10;99.90
11385;DHT22;5747;56.748;13.882;2023-03-31T00:26:29;2.10;99.90
11385;DHT22;5747;56.748;13.882;2023-03-31T00:28:58;2.10;99.90
11385;DHT22;5747;56.748;13.882;2023-03-31T00:31:28;2.20;99.90
11385;DHT22;5747;56.748;13.882;2023-03-31T00:33:56;2.20;99.90
11385;DHT22;5747;56.748;13.882;2023-03-31T00:36:26;2.20;99.90
11385;DHT22;5747;56.748;13.882;2023-03-31T00:38:55;2.20;99.90
11385;DHT22;5747;56.748;13.882;2023-03-31T00:41:27;2.20;99.90
11385;DHT22;5747;56.748;13.882;2023-03-31T00:44:07;2.20;99.90
11385;DHT22;5747;56.748;13.882;2023-03-31T00:46:41;2.30;99.90
11385;DHT22;5747;56.748;13.882;2023-03-31T00:49:17;2.20;99.90
11385;DHT22;5747;56.748;13.882;2023-03-31T00:51:48;2.30;99.90
11385;DHT22;5747;56.748;13.882;2023-03-31T00:54:18;2.20;99.90
11385;DHT22;5747;56.748;13.882;2023-03-31T00:56:50;2.20;99.90
11385;DHT22;5747;56.748;13.882;2023-03-31T00:59:24;2.20;99.90
11385;DHT22;5747;56.748;13.882;2023-03-31T01:01:56;2.20;99.90
11385;DHT22;5747;56.748;13.882;2023-03-31T01:04:31;2.20;99.90
11385;DHT22;5747;56.748;13.882;2023-03-31T01:07:04;2.20;99.90
11385;DHT22;5747;56.748;13.882;2023-03-31T01:09:35;2.10;99.90
11385;DHT22;5747;56.748;13.882;2023-03-31T01:12:07;2.10;99.90
11385;DHT22;5747;56.748;13.882;2023-03-31T01:14:36;2.00;99.90
11385;DHT22;5747;56.748;13.882;2023-03-31T01:17:07;2.00;99.90
11385;DHT22;5747;56.748;13.882;2023-03-31T01:19:45;1.90;99.90
11385;DHT22;5747;56.748;13.882;2023-03-31T01:22:55;1.90;99.90
11385;DHT22;5747;56.748;13.882;2023-03-31T01:25:40;1.90;99.90
11385;DHT22;5747;56.748;13.882;2023-03-31T01:28:22;1.90;99.90
11385;DHT22;5747;56.748;13.882;2023-03-31T01:31:13;1.90;99.90
11385;DHT22;5747;56.748;13.882;2023-03-31T01:37:24;1.90;99.90
11385;DHT22;5747;56.748;13.882;2023-03-31T01:40:34;2.10;99.90
11385;DHT22;5747;56.748;13.882;2023-03-31T01:43:09;2.20;99.90
11385;DHT22;5747;56.748;13.882;2023-03-31T01:45:49;2.20;99.90
11385;DHT22;5747;56.748;13.882;2023-03-31T01:48:22;2.30;99.90
11385;DHT22;5747;56.748;13.882;2023-03-31T01:50:58;2.30;99.90
11385;DHT22;5747;56.748;13.882;2023-03-31T01:53:32;2.30;99.90
11385;DHT22;5747;56.748;13.882;2023-03-31T01:56:06;2.30;99.90
11385;DHT22;5747;56.748;13.882;2023-03-31T01:58:40;2.30;99.90
11385;DHT22;5747;56.748;13.882;2023-03-31T02:01:14;2.30;99.90
11385;DHT22;5747;56.748;13.882;2023-03-31T02:03:47;2.20;99.90
11385;DHT22;5747;56.748;13.882;2023-03-31T02:06:19;2.20;99.90
11385;DHT22;5747;56.748;13.882;2023-03-31T02:08:53;2.20;99.90
11385;DHT22;5747;56.748;13.882;2023-03-31T02:11:26;2.20;99.90
11385;DHT22;5747;56.748;13.882;2023-03-31T02:13:55;2.10;99.90
11385;DHT22;5747;56.748;13.882;2023-03-31T02:16:29;2.20;99.90
11385;DHT22;5747;56.748;13.882;2023-03-31T02:19:02;2.20;99.90
11385;DHT22;5747;56.748;13.882;2023-03-31T02:21:32;2.20;99.90
11385;DHT22;5747;56.748;13.882;2023-03-31T02:24:05;2.10;99.90
11385;DHT22;5747;56.748;13.882;2023-03-31T02:26:39;2.10;99.90
11385;DHT22;5747;56.748;13.882;2023-03-31T02:29:09;2.10;99.90
11385;DHT22;5747;56.748;13.882;2023-03-31T02:31:43;2.20;99.90
11385;DHT22;5747;56.748;13.882;2023-03-31T02:34:13;2.20;99.90
11385;DHT22;5747;56.748;13.882;2023-03-31T02:36:43;2.30;99.90
11385;DHT22;5747;56.748;13.882;2023-03-31T02:39:16;2.30;99.90
11385;DHT22;5747;56.748;13.882;2023-03-31T02:41:46;2.30;99.90
11385;DHT22;5747;56.748;13.882;2023-03-31T02:44:14;2.20;99.90
11385;DHT22;5747;56.748;13.882;2023-03-31T02:46:44;2.30;99.90
11385;DHT22;5747;56.748;13.882;2023-03-31T02:49:13;2.30;99.90
11385;DHT22;5747;56.748;13.882;2023-03-31T02:55:10;2.30;99.90
11385;DHT22;5747;56.748;13.882;2023-03-31T02:58:02;2.20;99.90
11385;DHT22;5747;56.748;13.882;2023-03-31T03:00:45;2.20;99.90
11385;DHT22;5747;56.748;13.882;2023-03-31T03:03:25;2.20;99.90
11385;DHT22;5747;56.748;13.882;2023-03-31T03:06:04;2.10;99.90
11385;DHT22;5747;56.748;13.882;2023-03-31T03:09:11;2.10;99.90
11385;DHT22;5747;56.748;13.882;2023-03-31T03:11:47;2.10;99.90
11385;DHT22;5747;56.748;13.882;2023-03-31T03:14:23;2.00;99.90
11385;DHT22;5747;56.748;13.882;2023-03-31T03:16:57;2.00;99.90
11385;DHT22;5747;56.748;13.882;2023-03-31T03:19:28;2.10;99.90
11385;DHT22;5747;56.748;13.882;2023-03-31T03:21:57;2.00;99.90
11385;DHT22;5747;56.748;13.882;2023-03-31T03:24:25;1.90;99.90
11385;DHT22;5747;56.748;13.882;2023-03-31T03:26:55;2.00;99.90
11385;DHT22;5747;56.748;13.882;2023-03-31T03:29:25;2.00;99.90
11385;DHT22;5747;56.748;13.882;2023-03-31T03:31:53;2.00;99.90
11385;DHT22;5747;56.748;13.882;2023-03-31T03:34:22;2.10;99.90
11385;DHT22;5747;56.748;13.882;2023-03-31T03:36:51;2.10;99.90
11385;DHT22;5747;56.748;13.882;2023-03-31T03:39:19;2.20;99.90
11385;DHT22;5747;56.748;13.882;2023-03-31T03:41:47;2.20;99.90
11385;DHT22;5747;56.748;13.882;2023-03-31T03:44:15;2.10;99.90
11385;DHT22;5747;56.748;13.882;2023-03-31T03:46:45;2.10;99.90
11385;DHT22;5747;56.748;13.882;2023-03-31T03:49:13;2.10;99.90
11385;DHT22;5747;56.748;13.882;2023-03-31T03:51:41;2.20;99.90
11385;DHT22;5747;56.748;13.882;2023-03-31T03:54:09;2.20;99.90
11385;DHT22;5747;56.748;13.882;2023-03-31T03:56:37;2.10;99.90
11385;DHT22;5747;56.748;13.882;2023-03-31T03:59:05;2.10;99.90
11385;DHT22;5747;56.748;13.882;2023-03-31T04:01:34;2.10;99.90
11385;DHT22;5747;56.748;13.882;2023-03-31T04:04:04;2.00;99.90
11385;DHT22;5747;56.748;13.882;2023-03-31T04:06:32;2.00;99.90
11385;DHT22;5747;56.748;13.882;2023-03-31T04:09:01;2.00;99.90
11385;DHT22;5747;56.748;13.882;2023-03-31T04:11:30;2.00;99.90
11385;DHT22;5747;56.748;13.882;2023-03-31T04:13:58;2.00;99.90
11385;DHT22;5747;56.748;13.882;2023-03-31T04:16:26;2.10;99.90
11385;DHT22;5747;56.748;13.882;2023-03-31T04:18:54;2.10;99.90
11385;DHT22;5747;56.748;13.882;2023-03-31T04:21:26;2.20;99.90
11385;DHT22;5747;56.748;13.882;2023-03-31T04:23:56;2.20;99.90
11385;DHT22;5747;56.748;13.882;2023-03-31T04:26:29;2.30;99.90
11385;DHT22;5747;56.748;13.882;2023-03-31T04:29:05;2.30;99.90
11385;DHT22;5747;56.748;13.882;2023-03-31T04:31:33;2.20;99.90
11385;DHT22;5747;56.748;13.882;2023-03-31T04:34:05;2.30;99.90
11385;DHT22;5747;56.748;13.882;2023-03-31T04:36:41;2.20;99.90
11385;DHT22;5747;56.748;13.882;2023-03-31T04:39:14;2.20;99.90
11385;DHT22;5747;56.748;13.882;2023-03-31T04:41:43;2.20;99.90
11385;DHT22;5747;56.748;13.882;2023-03-31T04:44:11;2.20;99.90
11385;DHT22;5747;56.748;13.882;2023-03-31T04:46:39;2.10;99.90
11385;DHT22;5747;56.748;13.882;2023-03-31T04:49:07;2.10;99.90
11385;DHT22;5747;56.748;13.882;2023-03-31T04:51:35;2.10;99.90
11385;DHT22;5747;56.748;13.882;2023-03-31T04:54:05;2.10;99.90
11385;DHT22;5747;56.748;13.882;2023-03-31T04:56:33;2.10;99.90
11385;DHT22;5747;56.748;13.882;2023-03-31T04:59:01;2.10;99.90
11385;DHT22;5747;56.748;13.882;2023-03-31T05:01:30;2.00;99.90
11385;DHT22;5747;56.748;13.882;2023-03-31T05:04:03;2.10;99.90
11385;DHT22;5747;56.748;13.882;2023-03-31T05:06:31;2.10;99.90
11385;DHT22;5747;56.748;13.882;2023-03-31T05:09:00;2.00;99.90
11385;DHT22;5747;56.748;13.882;2023-03-31T05:11:29;1.90;99.90
11385;DHT22;5747;56.748;13.882;2023-03-31T05:13:58;2.00;99.90
11385;DHT22;5747;56.748;13.882;2023-03-31T05:16:26;2.00;99.90
11385;DHT22;5747;56.748;13.882;2023-03-31T05:18:55;2.00;99.90
11385;DHT22;5747;56.748;13.882;2023-03-31T05:21:23;2.20;99.90
11385;DHT22;5747;56.748;13.882;2023-03-31T05:23:52;2.20;99.90
11385;DHT22;5747;56.748;13.882;2023-03-31T05:26:21;2.20;99.90
11385;DHT22;5747;56.748;13.882;2023-03-31T05:28:52;2.20;99.90
11385;DHT22;5747;56.748;13.882;2023-03-31T05:31:20;2.20;99.90
11385;DHT22;5747;56.748;13.882;2023-03-31T05:33:48;2.20;99.90
11385;DHT22;5747;56.748;13.882;2023-03-31T05:36:17;2.20;99.90
11385;DHT22;5747;56.748;13.882;2023-03-31T05:38:45;2.20;99.90
11385;DHT22;5747;56.748;13.882;2023-03-31T05:41:14;2.30;99.90
11385;DHT22;5747;56.748;13.882;2023-03-31T05:43:42;2.30;99.90
11385;DHT22;5747;56.748;13.882;2023-03-31T05:46:12;2.30;99.90
11385;DHT22;5747;56.748;13.882;2023-03-31T05:48:40;2.40;99.90
11385;DHT22;5747;56.748;13.882;2023-03-31T05:51:08;2.40;99.90
11385;DHT22;5747;56.748;13.882;2023-03-31T05:53:36;2.40;99.90
11385;DHT22;5747;56.748;13.882;2023-03-31T05:56:05;2.40;99.90
11385;DHT22;5747;56.748;13.882;2023-03-31T05:58:34;2.50;99.90
11385;DHT22;5747;56.748;13.882;2023-03-31T06:01:06;2.40;99.90
11385;DHT22;5747;56.748;13.882;2023-03-31T06:03:38;2.40;99.90
11385;DHT22;5747;56.748;13.882;2023-03-31T06:06:09;2.50;99.90
11385;DHT22;5747;56.748;13.882;2023-03-31T06:08:38;2.50;99.90
11385;DHT22;5747;56.748;13.882;2023-03-31T06:11:08;2.50;99.90
11385;DHT22;5747;56.748;13.882;2023-03-31T06:13:37;2.50;99.90
11385;DHT22;5747;56.748;13.882;2023-03-31T06:16:06;2.50;99.90
11385;DHT22;5747;56.748;13.882;2023-03-31T06:18:36;2.50;99.90
11385;DHT22;5747;56.748;13.882;2023-03-31T06:21:04;2.50;99.90
11385;DHT22;5747;56.748;13.882;2023-03-31T06:23:33;2.50;99.90
11385;DHT22;5747;56.748;13.882;2023-03-31T06:26:03;2.50;99.90
11385;DHT22;5747;56.748;13.882;2023-03-31T06:28:33;2.50;99.90
11385;DHT22;5747;56.748;13.882;2023-03-31T06:31:02;2.40;99.90
11385;DHT22;5747;56.748;13.882;2023-03-31T06:33:30;2.40;99.90
11385;DHT22;5747;56.748;13.882;2023-03-31T06:36:00;2.30;99.90
11385;DHT22;5747;56.748;13.882;2023-03-31T06:38:32;2.40;99.90
11385;DHT22;5747;56.748;13.882;2023-03-31T06:41:00;2.40;99.90
11385;DHT22;5747;56.748;13.882;2023-03-31T06:43:29;2.50;99.90
11385;DHT22;5747;56.748;13.882;2023-03-31T06:45:57;2.50;99.90
11385;DHT22;5747;56.748;13.882;2023-03-31T06:48:26;2.50;99.90
11385;DHT22;5747;56.748;13.882;2023-03-31T06:50:58;2.60;99.90
11385;DHT22;5747;56.748;13.882;2023-03-31T06:53:28;2.50;99.90
11385;DHT22;5747;56.748;13.882;2023-03-31T06:55:57;2.60;99.90
11385;DHT22;5747;56.748;13.882;2023-03-31T06:58:25;2.60;99.90
11385;DHT22;5747;56.748;13.882;2023-03-31T07:00:57;2.60;99.90
11385;DHT22;5747;56.748;13.882;2023-03-31T07:03:25;2.60;99.90
11385;DHT22;5747;56.748;13.882;2023-03-31T07:05:55;2.60;99.90
11385;DHT22;5747;56.748;13.882;2023-03-31T07:08:23;2.50;99.90
11385;DHT22;5747;56.748;13.882;2023-03-31T07:10:55;2.60;99.90
11385;DHT22;5747;56.748;13.882;2023-03-31T07:13:25;2.70;99.90
11385;DHT22;5747;56.748;13.882;2023-03-31T07:15:53;2.80;99.90
11385;DHT22;5747;56.748;13.882;2023-03-31T07:18:22;2.90;99.90
11385;DHT22;5747;56.748;13.882;2023-03-31T07:20:52;2.80;99.90
11385;DHT22;5747;56.748;13.882;2023-03-31T07:23:20;2.90;99.90
11385;DHT22;5747;56.748;13.882;2023-03-31T07:25:48;2.90;99.90
11385;DHT22;5747;56.748;13.882;2023-03-31T07:28:17;3.00;99.90
11385;DHT22;5747;56.748;13.882;2023-03-31T07:30:45;3.10;99.90
11385;DHT22;5747;56.748;13.882;2023-03-31T07:33:13;3.10;99.90
11385;DHT22;5747;56.748;13.882;2023-03-31T07:35:42;3.20;99.90
11385;DHT22;5747;56.748;13.882;2023-03-31T07:38:11;3.20;99.90
11385;DHT22;5747;56.748;13.882;2023-03-31T07:40:40;3.10;99.90
11385;DHT22;5747;56.748;13.882;2023-03-31T07:43:11;3.20;99.90
11385;DHT22;5747;56.748;13.882;2023-03-31T07:45:40;3.20;99.90
11385;DHT22;5747;56.748;13.882;2023-03-31T07:48:08;3.00;99.90
11385;DHT22;5747;56.748;13.882;2023-03-31T07:50:36;3.10;99.90
11385;DHT22;5747;56.748;13.882;2023-03-31T07:53:11;3.00;99.90
11385;DHT22;5747;56.748;13.882;2023-03-31T07:55:40;3.00;99.90
11385;DHT22;5747;56.748;13.882;2023-03-31T07:58:08;3.00;99.90
11385;DHT22;5747;56.748;13.882;2023-03-31T08:00:37;2.90;99.90
11385;DHT22;5747;56.748;13.882;2023-03-31T08:03:06;2.90;99.90
11385;DHT22;5747;56.748;13.882;2023-03-31T08:05:35;2.90;99.90
11385;DHT22;5747;56.748;13.882;2023-03-31T08:08:03;3.10;99.90
11385;DHT22;5747;56.748;13.882;2023-03-31T08:10:31;3.10;99.90
11385;DHT22;5747;56.748;13.882;2023-03-31T08:12:59;3.00;99.90
11385;DHT22;5747;56.748;13.882;2023-03-31T08:15:27;3.10;99.90
11385;DHT22;5747;56.748;13.882;2023-03-31T08:17:55;3.00;99.90
11385;DHT22;5747;56.748;13.882;2023-03-31T08:20:25;3.00;99.90
11385;DHT22;5747;56.748;13.882;2023-03-31T08:22:53;2.90;99.90
11385;DHT22;5747;56.748;13.882;2023-03-31T08:25:21;2.90;99.90
11385;DHT22;5747;56.748;13.882;2023-03-31T08:27:49;3.00;99.90
11385;DHT22;5747;56.748;13.882;2023-03-31T08:30:18;3.00;99.90
11385;DHT22;5747;56.748;13.882;2023-03-31T08:32:47;3.10;99.90
11385;DHT22;5747;56.748;13.882;2023-03-31T08:35:15;3.20;99.90
11385;DHT22;5747;56.748;13.882;2023-03-31T08:37:44;3.40;99.90
11385;DHT22;5747;56.748;13.882;2023-03-31T08:40:16;3.40;99.90
11385;DHT22;5747;56.748;13.882;2023-03-31T08:42:48;3.40;99.90
11385;DHT22;5747;56.748;13.882;2023-03-31T08:45:21;3.50;99.90
11385;DHT22;5747;56.748;13.882;2023-03-31T08:47:52;3.50;99.90
11385;DHT22;5747;56.748;13.882;2023-03-31T08:50:24;3.60;99.90
11385;DHT22;5747;56.748;13.882;2023-03-31T08:53:00;3.50;99.90
11385;DHT22;5747;56.748;13.882;2023-03-31T08:55:35;3.70;99.90
11385;DHT22;5747;56.748;13.882;2023-03-31T08:58:12;3.70;99.90
11385;DHT22;5747;56.748;13.882;2023-03-31T09:00:48;3.90;99.90
11385;DHT22;5747;56.748;13.882;2023-03-31T09:03:22;3.80;99.90
11385;DHT22;5747;56.748;13.882;2023-03-31T09:05:55;3.70;99.90
11385;DHT22;5747;56.748;13.882;2023-03-31T09:08:35;3.70;99.90
11385;DHT22;5747;56.748;13.882;2023-03-31T09:11:13;3.80;99.90
11385;DHT22;5747;56.748;13.882;2023-03-31T09:14:12;3.80;99.90
11385;DHT22;5747;56.748;13.882;2023-03-31T09:16:49;3.70;99.90
11385;DHT22;5747;56.748;13.882;2023-03-31T09:19:29;3.60;99.90
11385;DHT22;5747;56.748;13.882;2023-03-31T09:21:59;3.50;99.90
11385;DHT22;5747;56.748;13.882;2023-03-31T09:24:31;3.60;99.90
11385;DHT22;5747;56.748;13.882;2023-03-31T09:27:01;3.60;99.90
11385;DHT22;5747;56.748;13.882;2023-03-31T09:29:41;3.60;99.90
11385;DHT22;5747;56.748;13.882;2023-03-31T09:32:14;3.60;99.90
11385;DHT22;5747;56.748;13.882;2023-03-31T09:34:43;3.60;99.90
11385;DHT22;5747;56.748;13.882;2023-03-31T09:37:12;3.60;99.90
11385;DHT22;5747;56.748;13.882;2023-03-31T09:39:42;3.50;99.90
11385;DHT22;5747;56.748;13.882;2023-03-31T09:42:11;3.50;99.90
11385;DHT22;5747;56.748;13.882;2023-03-31T09:44:42;3.60;99.90
11385;DHT22;5747;56.748;13.882;2023-03-31T09:47:15;3.60;99.90
11385;DHT22;5747;56.748;13.882;2023-03-31T09:49:46;3.50;99.90
11385;DHT22;5747;56.748;13.882;2023-03-31T09:52:26;3.50;99.90
11385;DHT22;5747;56.748;13.882;2023-03-31T09:54:58;3.50;99.90
11385;DHT22;5747;56.748;13.882;2023-03-31T09:57:29;3.50;99.90
11385;DHT22;5747;56.748;13.882;2023-03-31T10:00:05;3.50;99.90
11385;DHT22;5747;56.748;13.882;2023-03-31T10:02:43;3.50;99.90
11385;DHT22;5747;56.748;13.882;2023-03-31T10:05:23;3.40;99.90
11385;DHT22;5747;56.748;13.882;2023-03-31T10:07:53;3.40;99.90
11385;DHT22;5747;56.748;13.882;2023-03-31T10:10:43;3.50;99.90
11385;DHT22;5747;56.748;13.882;2023-03-31T10:13:15;3.40;99.90
11385;DHT22;5747;56.748;13.882;2023-03-31T10:15:44;3.30;99.90
11385;DHT22;5747;56.748;13.882;2023-03-31T10:18:13;3.40;99.90
11385;DHT22;5747;56.748;13.882;2023-03-31T10:20:45;3.50;99.90
11385;DHT22;5747;56.748;13.882;2023-03-31T10:23:21;3.50;99.90
11385;DHT22;5747;56.748;13.882;2023-03-31T10:25:51;3.50;99.90
11385;DHT22;5747;56.748;13.882;2023-03-31T10:28:20;3.50;99.90
11385;DHT22;5747;56.748;13.882;2023-03-31T10:30:50;3.60;99.90
11385;DHT22;5747;56.748;13.882;2023-03-31T10:33:22;3.60;99.90
11385;DHT22;5747;56.748;13.882;2023-03-31T10:35:54;3.50;99.90
11385;DHT22;5747;56.748;13.882;2023-03-31T10:38:26;3.50;99.90
11385;DHT22;5747;56.748;13.882;2023-03-31T10:40:58;3.60;99.90
11385;DHT22;5747;56.748;13.882;2023-03-31T10:43:28;3.60;99.90
11385;DHT22;5747;56.748;13.882;2023-03-31T10:45:58;3.50;99.90
11385;DHT22;5747;56.748;13.882;2023-03-31T10:48:28;3.50;99.90
11385;DHT22;5747;56.748;13.882;2023-03-31T10:50:59;3.50;99.90
11385;DHT22;5747;56.748;13.882;2023-03-31T10:53:38;3.50;99.90
11385;DHT22;5747;56.748;13.882;2023-03-31T10:56:19;3.50;99.90
11385;DHT22;5747;56.748;13.882;2023-03-31T10:59:02;3.40;99.90
11385;DHT22;5747;56.748;13.882;2023-03-31T11:01:42;3.40;99.90
11385;DHT22;5747;56.748;13.882;2023-03-31T11:04:37;3.30;99.90
11385;DHT22;5747;56.748;13.882;2023-03-31T11:07:11;3.30;99.90
11385;DHT22;5747;56.748;13.882;2023-03-31T11:09:50;3.30;99.90
11385;DHT22;5747;56.748;13.882;2023-03-31T11:12:25;3.30;99.90
11385;DHT22;5747;56.748;13.882;2023-03-31T11:15:04;3.20;99.90
11385;DHT22;5747;56.748;13.882;2023-03-31T11:17:56;3.20;99.90
11385;DHT22;5747;56.748;13.882;2023-03-31T11:20:33;3.20;99.90
11385;DHT22;5747;56.748;13.882;2023-03-31T11:23:10;3.10;99.90
11385;DHT22;5747;56.748;13.882;2023-03-31T11:25:48;3.10;99.90
11385;DHT22;5747;56.748;13.882;2023-03-31T11:28:37;3.20;99.90
11385;DHT22;5747;56.748;13.882;2023-03-31T11:31:25;3.20;99.90
11385;DHT22;5747;56.748;13.882;2023-03-31T11:37:13;3.20;99.90
11385;DHT22;5747;56.748;13.882;2023-03-31T11:39:53;3.20;99.90
11385;DHT22;5747;56.748;13.882;2023-03-31T11:42:27;3.20;99.90
11385;DHT22;5747;56.748;13.882;2023-03-31T11:45:05;3.20;99.90
11385;DHT22;5747;56.748;13.882;2023-03-31T11:47:39;3.10;99.90
11385;DHT22;5747;56.748;13.882;2023-03-31T11:50:12;3.10;99.90
11385;DHT22;5747;56.748;13.882;2023-03-31T11:52:44;3.00;99.90
11385;DHT22;5747;56.748;13.882;2023-03-31T11:55:17;3.00;99.90
11385;DHT22;5747;56.748;13.882;2023-03-31T11:58:00;3.00;99.90
11385;DHT22;5747;56.748;13.882;2023-03-31T12:00:33;3.00;99.90
11385;DHT22;5747;56.748;13.882;2023-03-31T12:03:09;3.00;99.90
11385;DHT22;5747;56.748;13.882;2023-03-31T12:05:43;3.00;99.90
11385;DHT22;5747;56.748;13.882;2023-03-31T12:08:16;3.00;99.90
11385;DHT22;5747;56.748;13.882;2023-03-31T12:10:49;3.00;99.90
11385;DHT22;5747;56.748;13.882;2023-03-31T12:13:33;3.10;99.90
11385;DHT22;5747;56.748;13.882;2023-03-31T12:16:09;3.10;99.90
11385;DHT22;5747;56.748;13.882;2023-03-31T12:18:42;3.10;99.90
11385;DHT22;5747;56.748;13.882;2023-03-31T12:21:14;3.10;99.90
11385;DHT22;5747;56.748;13.882;2023-03-31T12:23:44;3.10;99.90
11385;DHT22;5747;56.748;13.882;2023-03-31T12:26:22;3.10;99.90
11385;DHT22;5747;56.748;13.882;2023-03-31T12:28:58;3.10;99.90
11385;DHT22;5747;56.748;13.882;2023-03-31T12:31:30;3.00;99.90
11385;DHT22;5747;56.748;13.882;2023-03-31T12:34:02;2.90;99.90
11385;DHT22;5747;56.748;13.882;2023-03-31T12:36:44;2.90;99.90
11385;DHT22;5747;56.748;13.882;2023-03-31T12:39:24;3.00;99.90
11385;DHT22;5747;56.748;13.882;2023-03-31T12:44:56;2.90;99.90
11385;DHT22;5747;56.748;13.882;2023-03-31T12:47:38;2.90;99.90
11385;DHT22;5747;56.748;13.882;2023-03-31T12:50:27;2.90;99.90
11385;DHT22;5747;56.748;13.882;2023-03-31T12:53:04;2.90;99.90
11385;DHT22;5747;56.748;13.882;2023-03-31T12:55:39;2.90;99.90
11385;DHT22;5747;56.748;13.882;2023-03-31T12:58:41;2.90;99.90
11385;DHT22;5747;56.748;13.882;2023-03-31T13:01:12;2.90;99.90
11385;DHT22;5747;56.748;13.882;2023-03-31T13:03:48;2.90;99.90
11385;DHT22;5747;56.748;13.882;2023-03-31T13:06:49;3.00;99.90
11385;DHT22;5747;56.748;13.882;2023-03-31T13:09:48;3.00;99.90
11385;DHT22;5747;56.748;13.882;2023-03-31T13:12:21;3.00;99.90
11385;DHT22;5747;56.748;13.882;2023-03-31T13:14:50;3.00;99.90
11385;DHT22;5747;56.748;13.882;2023-03-31T13:17:26;3.00;99.90
11385;DHT22;5747;56.748;13.882;2023-03-31T13:20:13;3.00;99.90
11385;DHT22;5747;56.748;13.882;2023-03-31T13:22:45;3.00;99.90
11385;DHT22;5747;56.748;13.882;2023-03-31T13:28:32;3.10;99.90
11385;DHT22;5747;56.748;13.882;2023-03-31T13:31:01;3.10;99.90
11385;DHT22;5747;56.748;13.882;2023-03-31T13:33:34;3.00;99.90
11385;DHT22;5747;56.748;13.882;2023-03-31T13:36:27;3.00;99.90
11385;DHT22;5747;56.748;13.882;2023-03-31T13:39:12;3.00;99.90
11385;DHT22;5747;56.748;13.882;2023-03-31T13:41:53;3.00;99.90
11385;DHT22;5747;56.748;13.882;2023-03-31T13:44:47;3.00;99.90
11385;DHT22;5747;56.748;13.882;2023-03-31T13:47:47;2.90;99.90
11385;DHT22;5747;56.748;13.882;2023-03-31T13:50:49;2.80;99.90
11385;DHT22;5747;56.748;13.882;2023-03-31T13:53:31;2.70;99.90
11385;DHT22;5747;56.748;13.882;2023-03-31T13:56:11;2.80;99.90
11385;DHT22;5747;56.748;13.882;2023-03-31T14:05:03;2.70;99.90
11385;DHT22;5747;56.748;13.882;2023-03-31T14:07:37;2.70;99.90
11385;DHT22;5747;56.748;13.882;2023-03-31T14:10:22;2.70;99.90
11385;DHT22;5747;56.748;13.882;2023-03-31T14:12:50;2.70;99.90
11385;DHT22;5747;56.748;13.882;2023-03-31T14:15:20;2.60;99.90
11385;DHT22;5747;56.748;13.882;2023-03-31T14:17:48;2.60;99.90
11385;DHT22;5747;56.748;13.882;2023-03-31T14:20:28;2.60;99.90
11385;DHT22;5747;56.748;13.882;2023-03-31T14:23:18;2.60;99.90
11385;DHT22;5747;56.748;13.882;2023-03-31T14:25:56;2.60;99.90
11385;DHT22;5747;56.748;13.882;2023-03-31T14:28:53;2.50;99.90
11385;DHT22;5747;56.748;13.882;2023-03-31T14:31:29;2.40;99.90
11385;DHT22;5747;56.748;13.882;2023-03-31T14:34:24;2.40;99.90
11385;DHT22;5747;56.748;13.882;2023-03-31T14:36:59;2.50;99.90
11385;DHT22;5747;56.748;13.882;2023-03-31T14:39:30;2.50;99.90
11385;DHT22;5747;56.748;13.882;2023-03-31T14:42:03;2.50;99.90
11385;DHT22;5747;56.748;13.882;2023-03-31T14:44:33;2.40;99.90
11385;DHT22;5747;56.748;13.882;2023-03-31T14:47:01;2.40;99.90
11385;DHT22;5747;56.748;13.882;2023-03-31T14:49:34;2.30;99.90
11385;DHT22;5747;56.748;13.882;2023-03-31T14:52:12;2.30;99.90
11385;DHT22;5747;56.748;13.882;2023-03-31T14:54:43;2.30;99.90
11385;DHT22;5747;56.748;13.882;2023-03-31T14:57:17;2.30;99.90
11385;DHT22;5747;56.748;13.882;2023-03-31T14:59:47;2.20;99.90
11385;DHT22;5747;56.748;13.882;2023-03-31T15:02:19;2.20;99.90
11385;DHT22;5747;56.748;13.882;2023-03-31T15:04:50;2.20;99.90
11385;DHT22;5747;56.748;13.882;2023-03-31T15:07:18;2.20;99.90
11385;DHT22;5747;56.748;13.882;2023-03-31T15:09:49;2.20;99.90
11385;DHT22;5747;56.748;13.882;2023-03-31T15:12:20;2.20;99.90
11385;DHT22;5747;56.748;13.882;2023-03-31T15:14:50;2.10;99.90
11385;DHT22;5747;56.748;13.882;2023-03-31T15:17:20;2.20;99.90
11385;DHT22;5747;56.748;13.882;2023-03-31T15:19:56;2.20;99.90
11385;DHT22;5747;56.748;13.882;2023-03-31T15:22:26;2.20;99.90
11385;DHT22;5747;56.748;13.882;2023-03-31T15:24:54;2.20;99.90
11385;DHT22;5747;56.748;13.882;2023-03-31T15:27:32;2.20;99.90
11385;DHT22;5747;56.748;13.882;2023-03-31T15:30:06;2.20;99.90
11385;DHT22;5747;56.748;13.882;2023-03-31T15:32:35;2.10;99.90
11385;DHT22;5747;56.748;13.882;2023-03-31T15:35:06;2.10;99.90
11385;DHT22;5747;56.748;13.882;2023-03-31T15:37:49;2.10;99.90
11385;DHT22;5747;56.748;13.882;2023-03-31T15:40:21;2.20;99.90
11385;DHT22;5747;56.748;13.882;2023-03-31T15:42:52;2.20;99.90
11385;DHT22;5747;56.748;13.882;2023-03-31T15:45:48;2.10;99.90
11385;DHT22;5747;56.748;13.882;2023-03-31T15:48:21;2.10;99.90
11385;DHT22;5747;56.748;13.882;2023-03-31T15:50:50;2.10;99.90
11385;DHT22;5747;56.748;13.882;2023-03-31T15:53:31;2.10;99.90
11385;DHT22;5747;56.748;13.882;2023-03-31T15:56:02;2.10;99.90
11385;DHT22;5747;56.748;13.882;2023-03-31T15:58:54;2.10;99.90
11385;DHT22;5747;56.748;13.882;2023-03-31T16:01:26;2.10;99.90
11385;DHT22;5747;56.748;13.882;2023-03-31T16:03:56;2.00;99.90
11385;DHT22;5747;56.748;13.882;2023-03-31T16:06:41;2.00;99.90
11385;DHT22;5747;56.748;13.882;2023-03-31T16:09:13;2.00;99.90
11385;DHT22;5747;56.748;13.882;2023-03-31T16:11:45;1.90;99.90
11385;DHT22;5747;56.748;13.882;2023-03-31T16:14:19;1.90;99.90
11385;DHT22;5747;56.748;13.882;2023-03-31T16:16:53;2.00;99.90
11385;DHT22;5747;56.748;13.882;2023-03-31T16:19:24;2.00;99.90
11385;DHT22;5747;56.748;13.882;2023-03-31T16:21:56;2.00;99.90
11385;DHT22;5747;56.748;13.882;2023-03-31T16:24:28;2.00;99.90
11385;DHT22;5747;56.748;13.882;2023-03-31T16:26:59;1.90;99.90
11385;DHT22;5747;56.748;13.882;2023-03-31T16:29:34;1.90;99.90
11385;DHT22;5747;56.748;13.882;2023-03-31T16:32:08;1.90;99.90
11385;DHT22;5747;56.748;13.882;2023-03-31T16:34:51;1.90;99.90
11385;DHT22;5747;56.748;13.882;2023-03-31T16:37:20;1.80;99.90
11385;DHT22;5747;56.748;13.882;2023-03-31T16:39:48;1.80;99.90
11385;DHT22;5747;56.748;13.882;2023-03-31T16:42:17;1.80;99.90
11385;DHT22;5747;56.748;13.882;2023-03-31T16:44:46;1.70;99.90
11385;DHT22;5747;56.748;13.882;2023-03-31T16:47:34;1.70;99.90